Time;durP1;ratioP1;P1;durP2;ratioP2;P2;SDS_P1;SDS_P2;PMS_P1;PMS_P2;Temp;Humidity;BMP_temperature;BMP_pressure;BME280_temperature;BME280_humidity;BME280_pressure;Samples;Min_cycle;Max_cycle;Signal;HPM_P1;HPM_P2
2021/11/21 00:00:39;;;;;;;35.47;14.05;;;;;;;;;;5001233;28;20527;-57
2021/11/21 00:03:04;;;;;;;40.38;16.17;;;;;;;;;;4994913;28;20030;-55
2021/11/21 00:05:30;;;;;;;21.13;10.77;;;;;;;;;;5001694;28;20311;-54
2021/11/21 00:07:56;;;;;;;20.02;8.93;;;;;;;;;;4999309;28;20164;-55
2021/11/21 00:10:21;;;;;;;23.52;10.98;;;;;;;;;;5000072;28;20097;-55
2021/11/21 00:12:47;;;;;;;25.48;10.77;;;;;;;;;;5000841;28;20496;-56
2021/11/21 00:15:12;;;;;;;23.02;9.55;;;;;;;;;;4997569;28;20121;-56
2021/11/21 00:17:38;;;;;;;46.53;17.52;;;;;;;;;;4999238;28;20077;-55
2021/11/21 00:20:04;;;;;;;31.80;13.02;;;;;;;;;;5006688;28;20025;-55
2021/11/21 00:22:34;;;;;;;37.10;14.68;;;;;;;;;;4999495;28;20052;-54
2021/11/21 00:25:01;;;;;;;39.88;14.80;;;;;;;;;;5000624;28;20041;-54
2021/11/21 00:27:26;;;;;;;41.40;14.63;;;;;;;;;;5004961;28;20372;-55
2021/11/21 00:29:54;;;;;;;58.53;19.45;;;;;;;;;;5002660;28;20026;-55
2021/11/21 00:32:20;;;;;;;33.92;13.52;;;;;;;;;;5002643;28;20174;-53
2021/11/21 00:34:45;;;;;;;59.72;19.85;;;;;;;;;;5000784;28;20416;-56
2021/11/21 00:37:11;;;;;;;30.00;11.88;;;;;;;;;;5000306;28;20026;-54
2021/11/21 00:39:36;;;;;;;29.60;10.95;;;;;;;;;;4998205;28;20088;-56
2021/11/21 00:42:02;;;;;;;43.63;13.27;;;;;;;;;;5000391;28;20112;-54
2021/11/21 00:44:27;;;;;;;21.10;8.70;;;;;;;;;;5000540;28;20392;-55
2021/11/21 00:46:52;;;;;;;17.02;8.18;;;;;;;;;;5003073;28;20022;-55
2021/11/21 00:49:19;;;;;;;16.60;8.38;;;;;;;;;;4999506;28;20037;-58
2021/11/21 00:51:45;;;;;;;22.17;9.90;;;;;;;;;;5001697;28;20030;-55
2021/11/21 00:54:23;;;;;;;25.15;8.88;;;;;;;;;;4999006;28;20034;-55
2021/11/21 00:56:50;;;;;;;23.20;9.80;;;;;;;;;;4996867;28;20031;-55
2021/11/21 00:59:19;;;;;;;71.88;17.98;;;;;;;;;;5000498;28;20053;-57
2021/11/21 01:01:51;;;;;;;39.22;11.70;;;;;;;;;;5003366;28;20057;-55
2021/11/21 01:04:18;;;;;;;67.43;16.42;;;;;;;;;;5007508;28;20104;-55
2021/11/21 01:06:44;;;;;;;76.55;17.92;;;;;;;;;;5000514;28;20034;-57
2021/11/21 01:09:10;;;;;;;38.60;10.93;;;;;;;;;;5003984;28;20373;-55
2021/11/21 01:11:35;;;;;;;38.30;10.77;;;;;;;;;;5002864;28;20022;-56
2021/11/21 01:14:04;;;;;;;29.52;9.23;;;;;;;;;;5000521;28;20022;-54
2021/11/21 01:16:30;;;;;;;20.58;8.30;;;;;;;;;;5005654;28;20025;-56
2021/11/21 01:18:55;;;;;;;19.08;7.07;;;;;;;;;;5003858;28;20077;-54
2021/11/21 01:21:21;;;;;;;15.32;6.82;;;;;;;;;;5003613;28;20117;-54
2021/11/21 01:23:46;;;;;;;14.18;6.30;;;;;;;;;;5001571;28;20467;-56
2021/11/21 01:26:11;;;;;;;12.73;7.03;;;;;;;;;;5003339;28;20030;-56
2021/11/21 01:28:37;;;;;;;16.30;6.95;;;;;;;;;;4998763;28;20017;-56
2021/11/21 01:31:03;;;;;;;12.93;6.55;;;;;;;;;;5003643;28;20546;-56
2021/11/21 01:33:29;;;;;;;13.30;6.18;;;;;;;;;;5002998;28;20108;-56
2021/11/21 01:35:55;;;;;;;12.77;5.82;;;;;;;;;;5005984;28;20408;-56
2021/11/21 01:38:20;;;;;;;11.63;5.40;;;;;;;;;;5005742;28;20033;-57
2021/11/21 01:40:46;;;;;;;12.27;6.18;;;;;;;;;;5003510;28;20030;-54
2021/11/21 01:43:12;;;;;;;12.60;5.78;;;;;;;;;;5002920;28;20037;-56
2021/11/21 01:45:38;;;;;;;16.38;6.47;;;;;;;;;;5003890;28;20037;-53
2021/11/21 01:48:04;;;;;;;14.02;6.43;;;;;;;;;;5006629;28;20038;-55
2021/11/21 01:50:36;;;;;;;14.27;5.88;;;;;;;;;;5002062;28;20037;-56
2021/11/21 01:53:02;;;;;;;16.58;6.40;;;;;;;;;;5002746;28;20052;-55
2021/11/21 01:55:29;;;;;;;16.52;6.97;;;;;;;;;;5006455;28;20090;-56
2021/11/21 01:57:56;;;;;;;21.52;7.82;;;;;;;;;;5002749;28;20041;-54
2021/11/21 02:00:25;;;;;;;19.95;8.10;;;;;;;;;;5005587;28;20024;-56
2021/11/21 02:02:52;;;;;;;21.35;8.10;;;;;;;;;;5006162;28;20033;-54
2021/11/21 02:05:17;;;;;;;17.60;7.15;;;;;;;;;;5005441;28;20268;-56
2021/11/21 02:07:46;;;;;;;21.98;7.90;;;;;;;;;;5003668;28;20022;-56
2021/11/21 02:10:13;;;;;;;22.08;8.82;;;;;;;;;;5004396;28;20058;-56
2021/11/21 02:12:40;;;;;;;26.67;9.38;;;;;;;;;;5002340;28;20407;-55
2021/11/21 02:15:11;;;;;;;25.80;9.35;;;;;;;;;;5003193;28;20034;-56
2021/11/21 02:17:37;;;;;;;28.75;10.43;;;;;;;;;;4997695;28;20445;-56
2021/11/21 02:20:04;;;;;;;27.70;10.07;;;;;;;;;;4998367;28;20099;-55
2021/11/21 02:22:30;;;;;;;25.35;9.00;;;;;;;;;;5003738;28;20121;-54
2021/11/21 02:24:56;;;;;;;23.25;9.35;;;;;;;;;;5002184;28;20037;-56
2021/11/21 02:27:27;;;;;;;64.88;12.00;;;;;;;;;;5005814;28;20030;-59
2021/11/21 02:29:52;;;;;;;30.65;10.35;;;;;;;;;;5005168;28;20030;-56
2021/11/21 02:32:18;;;;;;;24.67;10.30;;;;;;;;;;5001725;28;20237;-56
2021/11/21 02:34:44;;;;;;;25.20;10.48;;;;;;;;;;4999286;28;20022;-55
2021/11/21 02:37:09;;;;;;;22.15;10.52;;;;;;;;;;5003004;28;20061;-55
2021/11/21 02:39:39;;;;;;;24.90;9.63;;;;;;;;;;5002639;28;20439;-56
2021/11/21 02:42:06;;;;;;;22.48;9.50;;;;;;;;;;5002405;28;20140;-56
2021/11/21 02:44:32;;;;;;;22.83;9.35;;;;;;;;;;5004325;28;20029;-55
2021/11/21 02:46:57;;;;;;;21.55;9.75;;;;;;;;;;5003959;28;20063;-56
2021/11/21 02:49:23;;;;;;;23.33;9.63;;;;;;;;;;5000140;28;20041;-57
2021/11/21 02:51:48;;;;;;;23.77;9.93;;;;;;;;;;5003798;28;20116;-54
2021/11/21 02:54:14;;;;;;;23.35;10.57;;;;;;;;;;5001898;28;20029;-56
2021/11/21 02:56:39;;;;;;;27.38;11.77;;;;;;;;;;5003146;28;20021;-55
2021/11/21 02:59:05;;;;;;;20.95;9.85;;;;;;;;;;5004884;28;20036;-55
2021/11/21 03:01:31;;;;;;;24.00;10.35;;;;;;;;;;5004103;28;20042;-56
2021/11/21 03:03:57;;;;;;;24.05;10.88;;;;;;;;;;5002421;28;20025;-55
2021/11/21 03:06:23;;;;;;;29.48;10.70;;;;;;;;;;5005520;28;20057;-55
2021/11/21 03:08:49;;;;;;;22.70;10.00;;;;;;;;;;5004105;28;20100;-55
2021/11/21 03:11:28;;;;;;;40.15;9.48;;;;;;;;;;5003247;28;20135;-55
2021/11/21 03:13:55;;;;;;;36.53;10.48;;;;;;;;;;5003487;28;20381;-55
2021/11/21 03:16:20;;;;;;;19.85;8.98;;;;;;;;;;5003343;28;20033;-56
2021/11/21 03:18:46;;;;;;;21.00;9.15;;;;;;;;;;5003695;28;20045;-56
2021/11/21 03:21:12;;;;;;;43.13;9.57;;;;;;;;;;5004529;28;20080;-55
2021/11/21 03:23:38;;;;;;;21.20;9.55;;;;;;;;;;5001592;28;20496;-55
2021/11/21 03:26:04;;;;;;;20.50;9.35;;;;;;;;;;5004883;28;20034;-55
2021/11/21 03:28:29;;;;;;;19.10;8.73;;;;;;;;;;4999176;28;20037;-55
2021/11/21 03:30:55;;;;;;;21.75;9.20;;;;;;;;;;5003066;28;20032;-56
2021/11/21 03:33:20;;;;;;;22.08;9.30;;;;;;;;;;4999798;28;20030;-56
2021/11/21 03:35:46;;;;;;;26.17;10.50;;;;;;;;;;5000429;28;20061;-55
2021/11/21 03:38:11;;;;;;;22.83;9.93;;;;;;;;;;5005019;28;20381;-55
2021/11/21 03:40:37;;;;;;;21.25;9.52;;;;;;;;;;5003894;28;20305;-56
2021/11/21 03:43:02;;;;;;;16.95;7.97;;;;;;;;;;5003123;28;20200;-55
2021/11/21 03:45:29;;;;;;;15.57;7.68;;;;;;;;;;4998532;28;20026;-55
2021/11/21 03:47:54;;;;;;;22.90;8.15;;;;;;;;;;5002982;28;20033;-55
2021/11/21 03:50:20;;;;;;;19.02;8.05;;;;;;;;;;4999955;28;20025;-55
2021/11/21 03:52:45;;;;;;;17.73;7.78;;;;;;;;;;5002073;28;20129;-56
2021/11/21 03:55:13;;;;;;;16.20;7.32;;;;;;;;;;5003772;28;20022;-56
2021/11/21 03:57:39;;;;;;;18.20;8.25;;;;;;;;;;4999957;28;20486;-57
2021/11/21 04:00:08;;;;;;;18.58;8.38;;;;;;;;;;4999346;28;20137;-55
2021/11/21 04:02:33;;;;;;;19.40;8.43;;;;;;;;;;4995174;28;20026;-55
2021/11/21 04:04:59;;;;;;;34.67;8.73;;;;;;;;;;5001724;28;20108;-55
2021/11/21 04:07:24;;;;;;;22.25;8.80;;;;;;;;;;5002101;28;20030;-56
2021/11/21 04:09:50;;;;;;;21.40;8.32;;;;;;;;;;5002791;28;20030;-57
2021/11/21 04:12:15;;;;;;;26.77;8.50;;;;;;;;;;5000677;28;20068;-59
2021/11/21 04:14:41;;;;;;;20.73;8.15;;;;;;;;;;5000292;28;20045;-57
2021/11/21 04:17:06;;;;;;;29.75;9.93;;;;;;;;;;5000329;28;20041;-57
2021/11/21 04:19:31;;;;;;;23.50;9.05;;;;;;;;;;5000917;28;20029;-56
2021/11/21 04:21:57;;;;;;;21.08;8.95;;;;;;;;;;5000212;28;20029;-57
2021/11/21 04:24:22;;;;;;;19.50;8.95;;;;;;;;;;5001217;28;20530;-56
2021/11/21 04:26:48;;;;;;;19.50;8.45;;;;;;;;;;5003579;28;20515;-53
2021/11/21 04:29:14;;;;;;;20.27;7.57;;;;;;;;;;4996812;28;20061;-55
2021/11/21 04:31:40;;;;;;;15.27;6.20;;;;;;;;;;5000363;28;20029;-56
2021/11/21 04:34:05;;;;;;;15.13;7.03;;;;;;;;;;5002302;28;20113;-55
2021/11/21 04:36:31;;;;;;;18.58;7.30;;;;;;;;;;5001905;28;20026;-54
2021/11/21 04:38:57;;;;;;;13.50;6.63;;;;;;;;;;4999316;28;20053;-56
2021/11/21 04:41:22;;;;;;;14.68;7.05;;;;;;;;;;5003200;28;20507;-56
2021/11/21 04:43:48;;;;;;;15.40;7.28;;;;;;;;;;5001709;28;20037;-57
2021/11/21 04:46:13;;;;;;;18.35;7.30;;;;;;;;;;4999607;28;20027;-56
2021/11/21 04:48:39;;;;;;;13.10;6.63;;;;;;;;;;5000330;28;20401;-57
2021/11/21 04:51:04;;;;;;;14.75;6.72;;;;;;;;;;5000291;28;20561;-54
2021/11/21 04:53:30;;;;;;;16.00;7.13;;;;;;;;;;4999721;28;20057;-54
2021/11/21 04:55:55;;;;;;;16.88;7.18;;;;;;;;;;4999483;28;20033;-55
2021/11/21 04:58:21;;;;;;;15.93;6.78;;;;;;;;;;4998710;28;20150;-54
2021/11/21 05:00:47;;;;;;;13.38;6.82;;;;;;;;;;5005640;28;20034;-54
2021/11/21 05:03:12;;;;;;;18.88;7.18;;;;;;;;;;5000600;28;20101;-55
2021/11/21 05:05:38;;;;;;;16.77;7.40;;;;;;;;;;5001632;28;20030;-56
2021/11/21 05:08:04;;;;;;;17.02;7.40;;;;;;;;;;5001839;28;20036;-54
2021/11/21 05:10:30;;;;;;;18.85;7.70;;;;;;;;;;4998719;28;20061;-54
2021/11/21 05:12:56;;;;;;;17.50;6.88;;;;;;;;;;4999431;28;20038;-56
2021/11/21 05:15:24;;;;;;;17.67;7.47;;;;;;;;;;5000857;28;20090;-53
2021/11/21 05:17:50;;;;;;;18.67;7.55;;;;;;;;;;4996899;28;20070;-54
2021/11/21 05:20:17;;;;;;;16.77;7.38;;;;;;;;;;5002054;28;20471;-58
2021/11/21 05:22:43;;;;;;;17.83;7.70;;;;;;;;;;4996185;28;20034;-55
2021/11/21 05:25:09;;;;;;;19.00;8.18;;;;;;;;;;5002210;28;20385;-54
2021/11/21 05:27:34;;;;;;;17.02;7.60;;;;;;;;;;4996509;28;20491;-53
2021/11/21 05:30:00;;;;;;;17.73;7.60;;;;;;;;;;5001165;28;20057;-52
2021/11/21 05:32:25;;;;;;;14.25;6.90;;;;;;;;;;5000202;28;20057;-56
2021/11/21 05:34:51;;;;;;;16.95;7.38;;;;;;;;;;4999214;28;20031;-55
2021/11/21 05:37:17;;;;;;;18.25;6.40;;;;;;;;;;5004156;28;20026;-53
2021/11/21 05:39:43;;;;;;;14.00;6.30;;;;;;;;;;5000802;28;20041;-55
2021/11/21 05:42:08;;;;;;;14.80;7.40;;;;;;;;;;5002615;28;20479;-54
2021/11/21 05:44:34;;;;;;;16.85;7.57;;;;;;;;;;4998308;28;20084;-55
2021/11/21 05:46:59;;;;;;;15.90;7.35;;;;;;;;;;4999356;28;20037;-54
2021/11/21 05:49:24;;;;;;;25.67;7.70;;;;;;;;;;5004452;28;20029;-54
2021/11/21 05:51:50;;;;;;;15.85;7.57;;;;;;;;;;5003053;28;20461;-54
2021/11/21 05:54:16;;;;;;;16.95;7.63;;;;;;;;;;5001608;28;20096;-57
2021/11/21 05:56:41;;;;;;;12.88;6.22;;;;;;;;;;5001287;28;20091;-53
2021/11/21 05:59:07;;;;;;;19.17;6.75;;;;;;;;;;5002137;28;20052;-54
2021/11/21 06:01:32;;;;;;;31.40;7.13;;;;;;;;;;5000477;28;20120;-54
2021/11/21 06:03:58;;;;;;;16.25;6.78;;;;;;;;;;5000195;28;20037;-54
2021/11/21 06:06:24;;;;;;;15.27;6.72;;;;;;;;;;5001897;28;20034;-55
2021/11/21 06:08:50;;;;;;;15.88;7.45;;;;;;;;;;5005540;28;20164;-56
2021/11/21 06:11:16;;;;;;;31.00;6.90;;;;;;;;;;5004183;28;20042;-58
2021/11/21 06:13:42;;;;;;;14.13;6.45;;;;;;;;;;5005160;28;20033;-56
2021/11/21 06:16:08;;;;;;;14.15;6.43;;;;;;;;;;5004187;28;20503;-56
2021/11/21 06:18:33;;;;;;;14.50;7.07;;;;;;;;;;5004334;28;20076;-56
2021/11/21 06:20:59;;;;;;;15.18;6.60;;;;;;;;;;5006504;28;20083;-57
2021/11/21 06:23:25;;;;;;;14.93;6.70;;;;;;;;;;5003365;28;20048;-56
2021/11/21 06:25:50;;;;;;;15.07;6.78;;;;;;;;;;5003788;28;20029;-57
2021/11/21 06:28:18;;;;;;;16.35;7.47;;;;;;;;;;5002829;28;20030;-58
2021/11/21 06:30:43;;;;;;;13.13;6.55;;;;;;;;;;5001177;28;20117;-56
2021/11/21 06:33:08;;;;;;;15.80;7.15;;;;;;;;;;5003071;28;20179;-56
2021/11/21 06:35:36;;;;;;;15.68;7.18;;;;;;;;;;5004156;28;20088;-56
2021/11/21 06:38:01;;;;;;;14.48;6.50;;;;;;;;;;5005926;28;20392;-57
2021/11/21 06:40:27;;;;;;;15.45;7.47;;;;;;;;;;5002219;28;20030;-57
2021/11/21 06:42:52;;;;;;;17.70;8.15;;;;;;;;;;5004813;28;20042;-55
2021/11/21 06:45:18;;;;;;;28.52;11.88;;;;;;;;;;5005157;28;20145;-56
2021/11/21 06:47:43;;;;;;;19.98;8.77;;;;;;;;;;5001489;28;20022;-56
2021/11/21 06:50:13;;;;;;;19.50;6.22;;;;;;;;;;5003071;28;20057;-55
2021/11/21 06:52:41;;;;;;;14.00;5.93;;;;;;;;;;5003197;28;20030;-56
2021/11/21 06:55:07;;;;;;;29.70;6.88;;;;;;;;;;5001867;28;20032;-55
2021/11/21 06:57:33;;;;;;;10.90;5.82;;;;;;;;;;5004364;28;20025;-56
2021/11/21 06:59:59;;;;;;;29.48;6.18;;;;;;;;;;4998796;28;20022;-55
2021/11/21 07:02:25;;;;;;;12.63;5.85;;;;;;;;;;5002716;28;20038;-57
2021/11/21 07:04:50;;;;;;;15.88;7.30;;;;;;;;;;5002981;28;20092;-58
2021/11/21 07:07:16;;;;;;;13.98;6.75;;;;;;;;;;5004640;28;20526;-58
2021/11/21 07:09:44;;;;;;;15.82;8.10;;;;;;;;;;5000221;28;20026;-57
2021/11/21 07:12:11;;;;;;;12.43;6.28;;;;;;;;;;5003568;28;20072;-57
2021/11/21 07:14:37;;;;;;;19.10;7.03;;;;;;;;;;5003657;28;20040;-58
2021/11/21 07:17:03;;;;;;;14.18;6.25;;;;;;;;;;5002495;28;20026;-57
2021/11/21 07:19:29;;;;;;;15.13;6.65;;;;;;;;;;5002251;28;20041;-57
2021/11/21 07:21:54;;;;;;;21.85;7.47;;;;;;;;;;4999881;28;20073;-55
2021/11/21 07:24:20;;;;;;;12.85;6.03;;;;;;;;;;5005122;28;20033;-56
2021/11/21 07:26:45;;;;;;;18.85;7.15;;;;;;;;;;4998117;28;20038;-57
2021/11/21 07:29:11;;;;;;;15.57;7.43;;;;;;;;;;5001556;28;20018;-56
2021/11/21 07:31:36;;;;;;;17.17;7.63;;;;;;;;;;4998452;28;20101;-56
2021/11/21 07:34:03;;;;;;;23.80;12.32;;;;;;;;;;5004043;28;20048;-57
2021/11/21 07:36:28;;;;;;;23.30;11.90;;;;;;;;;;5005008;28;20042;-57
2021/11/21 07:38:54;;;;;;;26.52;12.20;;;;;;;;;;5002309;28;20022;-56
2021/11/21 07:41:19;;;;;;;23.33;10.98;;;;;;;;;;5004289;28;20114;-57
2021/11/21 07:43:45;;;;;;;21.05;9.30;;;;;;;;;;5000123;28;20057;-58
2021/11/21 07:46:11;;;;;;;30.83;10.80;;;;;;;;;;5001991;28;20029;-56
2021/11/21 07:48:36;;;;;;;17.27;8.13;;;;;;;;;;4996790;28;20038;-58
2021/11/21 07:51:03;;;;;;;34.67;10.35;;;;;;;;;;5003130;28;20029;-56
2021/11/21 07:53:28;;;;;;;18.45;7.28;;;;;;;;;;5001808;28;20496;-57
2021/11/21 07:55:55;;;;;;;13.70;6.85;;;;;;;;;;4998342;28;20125;-56
2021/11/21 07:58:21;;;;;;;16.70;7.30;;;;;;;;;;4995112;28;20029;-56
2021/11/21 08:00:47;;;;;;;15.57;7.35;;;;;;;;;;5003070;28;20029;-56
2021/11/21 08:03:13;;;;;;;15.27;7.93;;;;;;;;;;4999365;28;20030;-55
2021/11/21 08:05:39;;;;;;;24.42;8.88;;;;;;;;;;5001122;28;20029;-55
2021/11/21 08:08:05;;;;;;;28.25;7.90;;;;;;;;;;5002474;28;20037;-56
2021/11/21 08:10:32;;;;;;;19.85;8.15;;;;;;;;;;5002360;28;20166;-55
2021/11/21 08:12:57;;;;;;;17.67;7.82;;;;;;;;;;5004120;28;20022;-56
2021/11/21 08:15:22;;;;;;;16.73;7.82;;;;;;;;;;5000045;28;20381;-57
2021/11/21 08:17:48;;;;;;;23.80;9.50;;;;;;;;;;5002018;28;20034;-53
2021/11/21 08:20:13;;;;;;;21.35;9.75;;;;;;;;;;4999370;28;20022;-55
2021/11/21 08:22:39;;;;;;;24.65;11.20;;;;;;;;;;5004617;28;20125;-56
2021/11/21 08:25:06;;;;;;;43.50;15.65;;;;;;;;;;5005719;28;20030;-58
2021/11/21 08:27:32;;;;;;;42.20;16.10;;;;;;;;;;5005275;28;20030;-57
2021/11/21 08:29:57;;;;;;;26.73;11.10;;;;;;;;;;4999473;28;20514;-57
2021/11/21 08:32:22;;;;;;;16.15;8.45;;;;;;;;;;4998745;28;20026;-57
2021/11/21 08:34:48;;;;;;;18.85;8.88;;;;;;;;;;5005049;28;20061;-57
2021/11/21 08:37:14;;;;;;;22.85;10.05;;;;;;;;;;4999027;28;20038;-60
2021/11/21 08:39:39;;;;;;;23.85;10.05;;;;;;;;;;4999697;28;20037;-61
2021/11/21 08:42:05;;;;;;;20.88;8.43;;;;;;;;;;5001970;28;20580;-60
2021/11/21 08:44:31;;;;;;;20.50;8.05;;;;;;;;;;5004344;28;20080;-60
2021/11/21 08:46:57;;;;;;;21.65;9.55;;;;;;;;;;5002197;28;20037;-60
2021/11/21 08:49:22;;;;;;;25.70;8.63;;;;;;;;;;4996606;28;20087;-60
2021/11/21 08:51:49;;;;;;;18.10;8.30;;;;;;;;;;4997156;28;20185;-60
2021/11/21 08:54:16;;;;;;;21.08;8.93;;;;;;;;;;5002670;28;20069;-61
2021/11/21 08:56:45;;;;;;;22.00;9.00;;;;;;;;;;4999813;28;20029;-60
2021/11/21 08:59:10;;;;;;;28.00;8.73;;;;;;;;;;4998783;28;20021;-60
2021/11/21 09:01:36;;;;;;;18.15;7.32;;;;;;;;;;5001022;28;20307;-58
2021/11/21 09:04:02;;;;;;;18.35;7.75;;;;;;;;;;5003447;28;20026;-59
2021/11/21 09:06:27;;;;;;;18.05;7.75;;;;;;;;;;5004119;28;20053;-61
2021/11/21 09:08:53;;;;;;;16.17;7.30;;;;;;;;;;5000332;28;20488;-61
2021/11/21 09:11:18;;;;;;;18.15;7.78;;;;;;;;;;5002238;28;20439;-61
2021/11/21 09:13:44;;;;;;;16.95;7.03;;;;;;;;;;5002931;28;20463;-59
2021/11/21 09:16:09;;;;;;;16.58;8.35;;;;;;;;;;5004702;28;20068;-60
2021/11/21 09:18:37;;;;;;;18.60;9.18;;;;;;;;;;4998358;28;20038;-60
2021/11/21 09:21:02;;;;;;;22.67;10.45;;;;;;;;;;4998091;28;20029;-57
2021/11/21 09:23:28;;;;;;;16.92;8.02;;;;;;;;;;5005255;28;20443;-55
2021/11/21 09:25:54;;;;;;;15.48;6.97;;;;;;;;;;5003911;28;20052;-57
2021/11/21 09:28:27;;;;;;;15.60;7.28;;;;;;;;;;5000658;28;20033;-58
2021/11/21 09:30:54;;;;;;;15.98;8.73;;;;;;;;;;5001101;28;20551;-59
2021/11/21 09:33:20;;;;;;;21.95;9.93;;;;;;;;;;5007393;28;20030;-57
2021/11/21 09:35:47;;;;;;;16.27;8.65;;;;;;;;;;5001210;28;20362;-56
2021/11/21 09:38:13;;;;;;;17.27;8.57;;;;;;;;;;5001473;28;20042;-56
2021/11/21 09:40:39;;;;;;;15.45;7.30;;;;;;;;;;5005343;28;20030;-57
2021/11/21 09:43:05;;;;;;;14.32;7.15;;;;;;;;;;5004212;28;20032;-56
2021/11/21 09:45:31;;;;;;;13.38;7.15;;;;;;;;;;5002850;28;20377;-57
2021/11/21 09:47:59;;;;;;;23.02;10.15;;;;;;;;;;5005986;28;20344;-58
2021/11/21 09:50:28;;;;;;;19.30;9.68;;;;;;;;;;5002677;28;20029;-57
2021/11/21 09:52:54;;;;;;;21.05;9.80;;;;;;;;;;5007904;28;20025;-57
2021/11/21 09:55:20;;;;;;;16.98;8.88;;;;;;;;;;5001778;28;20111;-57
2021/11/21 09:57:47;;;;;;;15.13;8.20;;;;;;;;;;5006819;28;20088;-57
2021/11/21 10:00:18;;;;;;;12.60;6.80;;;;;;;;;;5003018;28;20030;-56
2021/11/21 10:03:06;;;;;;;14.15;6.72;;;;;;;;;;5006315;28;20492;-56
2021/11/21 10:05:39;;;;;;;18.35;8.73;;;;;;;;;;5005674;28;20037;-57
2021/11/21 10:08:12;;;;;;;24.77;10.25;;;;;;;;;;5002224;28;20026;-56
2021/11/21 10:11:08;;;;;;;32.90;13.55;;;;;;;;;;5001760;28;20022;-57
2021/11/21 10:13:41;;;;;;;34.35;14.45;;;;;;;;;;4995639;28;20125;-56
2021/11/21 10:16:16;;;;;;;31.73;11.40;;;;;;;;;;5005220;28;20030;-58
2021/11/21 10:18:47;;;;;;;31.92;12.55;;;;;;;;;;5004311;28;20117;-57
2021/11/21 10:21:14;;;;;;;36.38;14.45;;;;;;;;;;4998570;28;20026;-57
2021/11/21 10:23:41;;;;;;;32.33;13.77;;;;;;;;;;5001153;28;20428;-59
2021/11/21 10:26:06;;;;;;;42.00;15.57;;;;;;;;;;5002707;28;20108;-59
2021/11/21 10:28:33;;;;;;;42.15;16.08;;;;;;;;;;5002871;28;20142;-56
2021/11/21 10:30:58;;;;;;;29.65;13.32;;;;;;;;;;5006093;28;20041;-58
2021/11/21 10:33:27;;;;;;;33.03;12.13;;;;;;;;;;5003907;28;20014;-58
2021/11/21 10:36:04;;;;;;;26.95;10.30;;;;;;;;;;4999854;28;20017;-58
2021/11/21 10:38:51;;;;;;;38.78;12.30;;;;;;;;;;5003372;28;20137;-56
2021/11/21 10:41:29;;;;;;;32.97;14.18;;;;;;;;;;5004624;28;20033;-59
2021/11/21 10:43:58;;;;;;;34.67;15.23;;;;;;;;;;5001119;28;20041;-59
2021/11/21 10:46:39;;;;;;;34.83;14.82;;;;;;;;;;5000074;28;20028;-58
2021/11/21 10:49:15;;;;;;;33.92;14.13;;;;;;;;;;4997658;28;20034;-58
2021/11/21 10:51:41;;;;;;;33.80;13.90;;;;;;;;;;5003952;28;20061;-57
2021/11/21 10:54:22;;;;;;;32.00;12.93;;;;;;;;;;4996879;28;20029;-57
2021/11/21 10:56:49;;;;;;;33.50;14.27;;;;;;;;;;5004544;28;20416;-56
2021/11/21 10:59:31;;;;;;;35.25;13.05;;;;;;;;;;5000384;28;20021;-57
2021/11/21 11:02:24;;;;;;;26.23;10.32;;;;;;;;;;5001253;28;20030;-58
2021/11/21 11:05:05;;;;;;;29.77;11.00;;;;;;;;;;5001003;28;20100;-57
2021/11/21 11:07:39;;;;;;;31.38;11.77;;;;;;;;;;5003597;28;20037;-59
2021/11/21 11:10:18;;;;;;;33.70;13.05;;;;;;;;;;5004276;28;20041;-58
2021/11/21 11:12:49;;;;;;;29.02;11.38;;;;;;;;;;5002183;28;20141;-58
2021/11/21 11:15:16;;;;;;;31.13;11.95;;;;;;;;;;5018180;28;20034;-58
2021/11/21 11:17:42;;;;;;;41.15;14.52;;;;;;;;;;5005720;28;20521;-58
2021/11/21 11:20:13;;;;;;;67.38;20.88;;;;;;;;;;5006587;28;20117;-57
2021/11/21 11:22:40;;;;;;;34.80;13.32;;;;;;;;;;5005005;28;20411;-56
2021/11/21 11:25:15;;;;;;;24.98;11.10;;;;;;;;;;5002610;28;20022;-57
2021/11/21 11:27:53;;;;;;;26.95;11.32;;;;;;;;;;5000062;28;20029;-57
2021/11/21 11:30:31;;;;;;;22.05;10.15;;;;;;;;;;5002104;28;20033;-58
2021/11/21 11:33:05;;;;;;;22.70;10.05;;;;;;;;;;5001474;28;20075;-56
2021/11/21 11:35:32;;;;;;;23.45;9.48;;;;;;;;;;5001357;28;20133;-57
2021/11/21 11:38:21;;;;;;;25.00;10.50;;;;;;;;;;5005244;28;20630;-57
2021/11/21 11:40:57;;;;;;;23.25;8.95;;;;;;;;;;5003384;28;20076;-58
2021/11/21 11:43:32;;;;;;;20.63;8.85;;;;;;;;;;5002891;28;20508;-58
2021/11/21 11:46:11;;;;;;;24.13;10.18;;;;;;;;;;4999802;28;20029;-57
2021/11/21 11:48:40;;;;;;;22.95;9.00;;;;;;;;;;5001223;28;20041;-57
2021/11/21 11:51:27;;;;;;;25.00;10.23;;;;;;;;;;5003535;28;20029;-57
2021/11/21 11:54:02;;;;;;;26.45;10.70;;;;;;;;;;5001851;28;20397;-58
2021/11/21 11:56:42;;;;;;;29.42;12.70;;;;;;;;;;4999475;28;20033;-57
2021/11/21 11:59:32;;;;;;;28.65;11.40;;;;;;;;;;5002254;28;20030;-57
2021/11/21 12:02:30;;;;;;;30.90;11.32;;;;;;;;;;5006359;28;20025;-57
2021/11/21 12:04:58;;;;;;;26.67;10.52;;;;;;;;;;4998145;28;20172;-57
2021/11/21 12:07:30;;;;;;;32.55;10.57;;;;;;;;;;4997798;28;20571;-58
2021/11/21 12:10:03;;;;;;;27.65;10.90;;;;;;;;;;4999523;28;20041;-57
2021/11/21 12:12:50;;;;;;;28.67;10.90;;;;;;;;;;4999038;28;20022;-58
2021/11/21 12:15:28;;;;;;;27.67;11.10;;;;;;;;;;5001133;28;20101;-57
2021/11/21 12:17:54;;;;;;;26.30;9.18;;;;;;;;;;5001701;28;20030;-57
2021/11/21 12:20:41;;;;;;;25.27;9.30;;;;;;;;;;5003622;28;20037;-60
2021/11/21 12:23:07;;;;;;;25.35;9.75;;;;;;;;;;5002212;28;20033;-57
2021/11/21 12:25:32;;;;;;;23.15;9.13;;;;;;;;;;4999924;28;20140;-57
2021/11/21 12:28:00;;;;;;;21.48;8.98;;;;;;;;;;5002267;28;20032;-56
2021/11/21 12:30:34;;;;;;;20.13;8.35;;;;;;;;;;4999150;28;20049;-57
2021/11/21 12:33:02;;;;;;;23.65;8.55;;;;;;;;;;5001584;28;20028;-56
2021/11/21 12:35:31;;;;;;;21.17;8.77;;;;;;;;;;4998822;28;20038;-57
2021/11/21 12:37:57;;;;;;;23.73;9.25;;;;;;;;;;5002715;28;20041;-57
2021/11/21 12:40:25;;;;;;;23.77;9.50;;;;;;;;;;5004369;28;20113;-57
2021/11/21 12:43:06;;;;;;;27.10;9.80;;;;;;;;;;5004784;28;20026;-56
2021/11/21 12:45:35;;;;;;;31.65;11.85;;;;;;;;;;4998982;28;20061;-57
2021/11/21 12:48:01;;;;;;;29.92;11.43;;;;;;;;;;5001946;28;20030;-56
2021/11/21 12:50:39;;;;;;;22.92;9.82;;;;;;;;;;5001061;28;20084;-57
2021/11/21 12:53:19;;;;;;;35.70;13.02;;;;;;;;;;5002838;28;20057;-58
2021/11/21 12:55:46;;;;;;;64.93;20.35;;;;;;;;;;5001040;28;20037;-58
2021/11/21 12:58:25;;;;;;;53.63;18.42;;;;;;;;;;5006471;28;20166;-57
2021/11/21 13:00:52;;;;;;;43.13;14.43;;;;;;;;;;5008361;28;20157;-56
2021/11/21 13:03:20;;;;;;;34.83;12.75;;;;;;;;;;5007048;28;20026;-57
2021/11/21 13:05:58;;;;;;;25.05;9.18;;;;;;;;;;5005532;28;20034;-57
2021/11/21 13:08:25;;;;;;;27.95;9.80;;;;;;;;;;5005012;28;20037;-56
2021/11/21 13:10:56;;;;;;;28.58;10.18;;;;;;;;;;5009783;28;20125;-56
2021/11/21 13:13:27;;;;;;;35.50;12.48;;;;;;;;;;5008085;28;20435;-56
2021/11/21 13:15:54;;;;;;;26.25;10.80;;;;;;;;;;5007149;28;20080;-56
2021/11/21 13:18:24;;;;;;;31.20;13.63;;;;;;;;;;5005073;28;20092;-57
2021/11/21 13:20:53;;;;;;;40.03;15.63;;;;;;;;;;5004853;28;20053;-57
2021/11/21 13:23:24;;;;;;;22.92;9.52;;;;;;;;;;5007732;28;20504;-57
2021/11/21 13:25:54;;;;;;;25.83;8.43;;;;;;;;;;5004730;28;20030;-54
2021/11/21 13:28:20;;;;;;;;;;;;;;;;;;5003360;28;20021;-56
2021/11/21 13:30:46;;;;;;;22.33;8.25;;;;;;;;;;5007992;28;19922;-58
2021/11/21 13:33:20;;;;;;;20.52;9.25;;;;;;;;;;5003812;28;20393;-56
2021/11/21 13:35:54;;;;;;;21.33;9.07;;;;;;;;;;5008977;28;20074;-58
2021/11/21 13:38:21;;;;;;;18.05;8.50;;;;;;;;;;5002539;28;20037;-57
2021/11/21 13:40:48;;;;;;;26.23;11.48;;;;;;;;;;5005654;28;20546;-57
2021/11/21 13:43:13;;;;;;;65.60;24.60;;;;;;;;;;5002995;28;20049;-56
2021/11/21 13:45:39;;;;;;;30.25;12.60;;;;;;;;;;5004178;28;20107;-57
2021/11/21 13:48:31;;;;;;;31.17;15.50;;;;;;;;;;5006075;28;20034;-58
2021/11/21 13:50:58;;;;;;;26.00;13.32;;;;;;;;;;5007477;28;20539;-58
2021/11/21 13:53:24;;;;;;;23.80;11.57;;;;;;;;;;5007067;28;20026;-57
2021/11/21 13:56:11;;;;;;;23.77;11.02;;;;;;;;;;5005883;28;20111;-57
2021/11/21 13:58:37;;;;;;;20.77;8.82;;;;;;;;;;5006877;28;20034;-58
2021/11/21 14:01:24;;;;;;;16.58;7.82;;;;;;;;;;5005923;28;20072;-58
2021/11/21 14:03:54;;;;;;;19.25;8.50;;;;;;;;;;5001183;28;20496;-59
2021/11/21 14:06:20;;;;;;;;;;;;;;;;;;5004229;28;20029;-57
2021/11/21 14:08:53;;;;;;;21.27;9.32;;;;;;;;;;5003841;28;20008;-57
2021/11/21 14:11:30;;;;;;;24.80;11.60;;;;;;;;;;5004749;28;20104;-57
2021/11/21 14:14:06;;;;;;;24.02;10.75;;;;;;;;;;5000726;28;20758;-57
2021/11/21 14:16:43;;;;;;;24.05;9.32;;;;;;;;;;5002764;28;20042;-57
2021/11/21 14:19:25;;;;;;;25.10;10.02;;;;;;;;;;5001412;28;20029;-57
2021/11/21 14:22:06;;;;;;;24.45;11.32;;;;;;;;;;5006527;28;20423;-58
2021/11/21 14:24:33;;;;;;;26.60;11.75;;;;;;;;;;5010121;28;20037;-57
2021/11/21 14:27:26;;;;;;;21.52;10.20;;;;;;;;;;4999306;28;20025;-57
2021/11/21 14:30:04;;;;;;;27.02;12.07;;;;;;;;;;5005150;28;20045;-57
2021/11/21 14:32:30;;;;;;;29.80;11.77;;;;;;;;;;5000505;28;20475;-58